Sutersville, Pennsylvania
Current Conditions -  °F | °C
As of 8:53 AM on Saturday 25 Oct 2014 (Local Time) from KAGC Reporting Station
Scattered Clouds Scattered Clouds  
Wind Chill: 45°   Ceiling: Unl
Heat Index: 49°   Visibility: 10mi
Dew Point: 37°   Wind: 9mph
Humidity: 64%   Direction: 200°SSW
Pressure: 29.95"   Gusts: NA
Location:  40.24°N, 79.8°W
Report Text: KAGC 251253Z AUTO 20008KT 10SM SCT040 09/03 A2995 RMK AO2 SLP150 T00940028 TSNO
Loading
Personal Weather Stations






























Interactive Weather Map
Tropical Storm Tracking
New forecast layout! Learn more

10-Day Weather Forecast

Advertisements
Track Severe Weather on mobile